Mukdahan, Thailand
Current Conditions -  °F | °C
As of 1:00 PM on Thursday 27 Nov 2014 (Local Time) from VTUW Reporting Station
Scattered Clouds Scattered Clouds  
Wind Chill: 91°   Ceiling: Unl
Heat Index: 95°   Visibility: 6mi
Dew Point: 68°   Wind: 1mph
Humidity: 46%   Direction: NA
Pressure: 29.8"   Gusts: NA
Location:  16.54°N, 104.72°E
Report Text: VTUW 270600Z VRB01KT 9999 SCT025 SCT120 33/20 Q1009 A2980RWY15 INFO E
Loading
Personal Weather Stations






























Interactive Weather Map New forecast layout! Learn more

10-Day Weather Forecast

Advertisements
Track Severe Weather on mobile